Time;durP1;ratioP1;P1;durP2;ratioP2;P2;SDS_P1;SDS_P2;PMS_P1;PMS_P2;Temp;Humidity;BMP_temperature;BMP_pressure;BME280_temperature;BME280_humidity;BME280_pressure;Samples;Min_cycle;Max_cycle;Signal;HPM_P1;HPM_P2
2021/03/21 00:02:24;;;;;;;10.02;5.72;;;6.30;99.90;;;;;;4989199;28;20056;-81
2021/03/21 00:04:50;;;;;;;8.57;5.38;;;6.30;99.90;;;;;;5001855;28;20056;-81
2021/03/21 00:07:16;;;;;;;9.20;6.22;;;6.30;99.90;;;;;;5008382;28;20054;-81
2021/03/21 00:09:43;;;;;;;8.23;5.20;;;6.30;99.90;;;;;;4986122;28;20073;-81
2021/03/21 00:12:10;;;;;;;8.27;5.72;;;6.30;99.90;;;;;;4998980;28;20279;-81
2021/03/21 00:14:36;;;;;;;7.22;5.07;;;6.30;99.90;;;;;;4986611;28;20478;-81
2021/03/21 00:17:03;;;;;;;6.65;5.13;;;6.30;99.90;;;;;;4992636;28;20093;-81
2021/03/21 00:19:29;;;;;;;7.88;5.32;;;6.30;99.90;;;;;;5001076;28;20104;-81
2021/03/21 00:21:55;;;;;;;10.70;5.13;;;6.30;99.90;;;;;;5000320;28;20054;-81
2021/03/21 00:24:21;;;;;;;12.15;5.28;;;6.30;99.90;;;;;;4993630;28;20054;-81
2021/03/21 00:27:05;;;;;;;10.23;4.87;;;6.30;99.90;;;;;;4967167;28;20057;-81
2021/03/21 00:29:34;;;;;;;8.35;4.90;;;6.30;99.90;;;;;;4989258;28;20372;-81
2021/03/21 00:32:00;;;;;;;7.25;4.82;;;6.30;99.90;;;;;;5006265;28;20082;-81
2021/03/21 00:34:27;;;;;;;7.50;4.75;;;6.30;99.90;;;;;;4988656;28;20688;-81
2021/03/21 00:36:53;;;;;;;6.90;4.15;;;6.30;99.90;;;;;;4993322;28;20460;-81
2021/03/21 00:39:19;;;;;;;7.60;4.47;;;6.30;99.90;;;;;;5000730;28;20189;-81
2021/03/21 00:41:45;;;;;;;5.60;4.30;;;6.40;99.90;;;;;;4995840;28;20054;-82
2021/03/21 00:44:11;;;;;;;10.52;4.57;;;6.30;99.90;;;;;;5010435;28;20127;-81
2021/03/21 00:46:38;;;;;;;6.25;3.75;;;6.40;99.90;;;;;;5006544;28;20117;-82
2021/03/21 00:49:05;;;;;;;6.70;4.20;;;6.40;99.90;;;;;;5010043;28;24957;-82
2021/03/21 00:51:31;;;;;;;4.88;4.20;;;6.40;99.90;;;;;;4990033;28;20505;-82
2021/03/21 00:53:57;;;;;;;5.78;3.80;;;6.40;99.90;;;;;;5007068;28;20046;-82
2021/03/21 00:56:39;;;;;;;4.03;3.40;;;6.40;99.90;;;;;;5010448;28;20050;-82
2021/03/21 00:59:07;;;;;;;4.13;3.38;;;6.40;99.90;;;;;;4998270;28;20596;-81
2021/03/21 01:01:33;;;;;;;6.07;4.50;;;6.40;99.90;;;;;;5008863;28;20065;-82
2021/03/21 01:04:01;;;;;;;5.68;4.05;;;6.40;99.90;;;;;;4996282;28;20045;-82
2021/03/21 01:06:27;;;;;;;7.18;4.70;;;6.40;99.90;;;;;;5009785;28;20539;-82
2021/03/21 01:09:04;;;;;;;9.60;4.30;;;6.40;99.90;;;;;;4987927;28;20136;-82
2021/03/21 01:11:34;;;;;;;7.63;3.92;;;6.40;99.90;;;;;;4990926;28;20824;-82
2021/03/21 01:14:02;;;;;;;8.88;4.18;;;6.40;99.90;;;;;;5006828;28;20057;-83
2021/03/21 01:16:32;;;;;;;5.72;4.20;;;6.40;99.90;;;;;;4990806;28;20461;-81
2021/03/21 01:18:59;;;;;;;7.18;4.43;;;6.40;99.90;;;;;;4991983;28;20160;-81
2021/03/21 01:21:32;;;;;;;8.02;3.92;;;6.40;99.90;;;;;;4993153;28;20459;-81
2021/03/21 01:23:58;;;;;;;7.03;4.32;;;6.40;99.90;;;;;;5010111;28;20184;-82
2021/03/21 01:26:27;;;;;;;8.50;4.15;;;6.40;99.90;;;;;;5005738;28;20465;-81
2021/03/21 01:28:58;;;;;;;4.90;3.75;;;6.30;99.90;;;;;;4992879;28;20501;-82
2021/03/21 01:31:25;;;;;;;8.70;4.32;;;6.30;99.90;;;;;;4985512;28;20081;-81
2021/03/21 01:33:52;;;;;;;6.03;3.90;;;6.30;99.90;;;;;;4992091;28;20057;-81
2021/03/21 01:36:29;;;;;;;6.28;3.75;;;6.30;99.90;;;;;;5009143;28;20054;-81
2021/03/21 01:38:57;;;;;;;5.65;4.10;;;6.30;99.90;;;;;;4990936;28;20133;-82
2021/03/21 01:41:27;;;;;;;8.25;4.25;;;6.30;99.90;;;;;;4987568;28;20046;-81
2021/03/21 01:43:54;;;;;;;5.90;4.30;;;6.30;99.90;;;;;;5006736;28;20137;-81
2021/03/21 01:46:55;;;;;;;6.10;4.65;;;6.30;99.90;;;;;;5007762;28;20136;-82
2021/03/21 01:49:27;;;;;;;5.53;4.22;;;6.30;99.90;;;;;;4988349;28;20109;-81
2021/03/21 01:51:57;;;;;;;5.30;3.95;;;6.30;99.90;;;;;;5004738;28;20469;-81
2021/03/21 01:54:25;;;;;;;7.90;4.43;;;6.30;99.90;;;;;;5006393;28;20056;-82
2021/03/21 01:56:55;;;;;;;8.10;4.97;;;6.30;99.90;;;;;;4994395;28;20053;-81
2021/03/21 01:59:26;;;;;;;5.90;4.47;;;6.30;99.90;;;;;;4988028;28;21589;-82
2021/03/21 02:01:54;;;;;;;6.57;4.45;;;6.30;99.90;;;;;;5007796;28;20032;-81
2021/03/21 02:04:21;;;;;;;6.38;4.18;;;6.30;99.90;;;;;;4995721;28;20042;-82
2021/03/21 02:07:48;;;;;;;6.82;5.15;;;6.30;99.90;;;;;;5006363;28;20077;-81
2021/03/21 02:10:33;;;;;;;7.15;5.07;;;6.30;99.90;;;;;;4965538;28;20110;-81
2021/03/21 02:13:07;;;;;;;8.80;5.43;;;6.30;99.90;;;;;;4967880;28;20555;-82
2021/03/21 02:15:52;;;;;;;;;;;6.40;99.90;;;;;;5000400;28;20054;-81
2021/03/21 02:18:37;;;;;;;;;;;6.40;99.90;;;;;;4995766;28;20451;-81
2021/03/21 02:21:29;;;;;;;13.07;6.82;;;6.40;99.90;;;;;;4998455;28;20292;-81
2021/03/21 02:24:23;;;;;;;10.63;6.40;;;6.40;99.90;;;;;;5008498;28;20058;-81
2021/03/21 02:27:12;;;;;;;13.18;7.05;;;6.40;99.90;;;;;;4997722;28;20074;-82
2021/03/21 02:29:47;;;;;;;14.25;7.80;;;6.40;99.90;;;;;;4989998;28;20138;-81
2021/03/21 02:32:22;;;;;;;14.32;8.27;;;6.40;99.90;;;;;;5005746;28;20046;-81
2021/03/21 02:35:04;;;;;;;14.68;8.02;;;6.40;99.90;;;;;;5007928;28;20046;-82
2021/03/21 02:37:42;;;;;;;12.88;8.35;;;6.40;99.90;;;;;;5005345;28;20057;-81
2021/03/21 02:40:45;;;;;;;17.15;8.52;;;6.40;99.90;;;;;;4984613;28;20049;-82
2021/03/21 02:43:27;;;;;;;20.20;7.78;;;6.40;99.90;;;;;;5008248;28;20076;-81
2021/03/21 02:45:58;;;;;;;16.02;8.52;;;6.40;99.90;;;;;;4990927;28;20081;-81
2021/03/21 02:48:32;;;;;;;16.20;7.63;;;6.40;99.90;;;;;;5005241;28;20077;-81
2021/03/21 02:51:22;;;;;;;20.60;7.55;;;6.40;99.90;;;;;;5002322;28;20410;-82
2021/03/21 02:54:10;;;;;;;15.10;7.03;;;6.40;99.90;;;;;;4987249;28;20144;-81
2021/03/21 02:56:39;;;;;;;23.75;9.65;;;6.40;99.90;;;;;;5005024;28;20038;-81
2021/03/21 02:59:08;;;;;;;18.20;7.95;;;6.50;99.90;;;;;;5008022;28;20066;-82
2021/03/21 03:02:02;;;;;;;20.13;8.52;;;6.50;99.90;;;;;;5010688;28;20117;-82
2021/03/21 03:04:34;;;;;;;20.90;7.90;;;6.50;99.90;;;;;;5008042;28;20073;-81
2021/03/21 03:07:34;;;;;;;15.90;7.97;;;6.50;99.90;;;;;;4995691;28;20054;-81
2021/03/21 03:10:18;;;;;;;18.75;7.72;;;6.50;99.90;;;;;;5008646;28;20494;-81
2021/03/21 03:12:51;;;;;;;19.23;7.75;;;6.50;99.90;;;;;;4994214;28;20070;-81
2021/03/21 03:15:19;;;;;;;17.52;6.40;;;6.60;99.90;;;;;;5009011;28;20053;-81
2021/03/21 03:18:14;;;;;;;17.13;5.45;;;6.50;99.90;;;;;;4987232;28;20046;-81
2021/03/21 03:20:44;;;;;;;22.45;6.15;;;6.50;99.90;;;;;;5006551;28;20054;-81
2021/03/21 03:23:47;;;;;;;19.50;5.10;;;6.60;99.90;;;;;;5000765;28;20516;-82
2021/03/21 03:26:26;;;;;;;12.45;3.88;;;6.60;99.90;;;;;;4985926;28;20109;-82
2021/03/21 03:29:08;;;;;;;11.63;3.75;;;6.60;99.90;;;;;;4997786;28;20042;-82
2021/03/21 03:31:45;;;;;;;17.17;4.60;;;6.60;99.90;;;;;;4997240;28;20042;-81
2021/03/21 03:34:12;;;;;;;10.45;3.42;;;6.60;99.90;;;;;;4987458;28;20157;-81
2021/03/21 03:36:38;;;;;;;9.02;3.80;;;6.60;99.90;;;;;;4990646;28;20057;-81
2021/03/21 03:39:05;;;;;;;11.50;3.00;;;6.60;99.90;;;;;;5010186;28;20046;-81
2021/03/21 03:41:43;;;;;;;9.15;3.00;;;6.60;99.90;;;;;;4993474;28;20145;-81
2021/03/21 03:44:18;;;;;;;20.20;4.15;;;6.70;99.90;;;;;;4999088;28;20053;-81
2021/03/21 03:47:11;;;;;;;10.10;3.05;;;6.70;99.90;;;;;;4992283;28;20425;-81
2021/03/21 03:50:01;;;;;;;16.05;2.78;;;6.70;99.90;;;;;;4992151;28;20069;-81
2021/03/21 03:52:33;;;;;;;11.77;2.60;;;6.70;99.90;;;;;;5006080;28;20068;-82
2021/03/21 03:55:20;;;;;;;14.18;2.50;;;6.70;99.90;;;;;;5006663;28;20049;-81
2021/03/21 03:57:58;;;;;;;5.72;2.55;;;6.70;99.90;;;;;;5005611;28;20053;-82
2021/03/21 04:00:31;;;;;;;18.05;3.60;;;6.70;99.90;;;;;;4990481;28;20099;-81
2021/03/21 04:03:28;;;;;;;8.00;2.70;;;6.70;99.90;;;;;;5009792;28;20049;-82
2021/03/21 04:05:58;;;;;;;10.50;2.53;;;6.70;99.90;;;;;;4992815;28;20050;-82
2021/03/21 04:08:49;;;;;;;11.50;2.10;;;6.70;99.90;;;;;;4990045;28;20046;-81
2021/03/21 04:11:18;;;;;;;13.07;2.97;;;6.70;99.90;;;;;;5004025;28;20129;-82
2021/03/21 04:14:06;;;;;;;12.90;2.35;;;6.70;99.90;;;;;;5004775;28;20052;-82
2021/03/21 04:16:55;;;;;;;7.90;2.28;;;6.70;99.90;;;;;;5005718;28;20105;-81
2021/03/21 04:19:25;;;;;;;15.80;2.00;;;6.70;99.90;;;;;;4979542;28;20053;-81
2021/03/21 04:21:54;;;;;;;13.80;2.42;;;6.70;99.90;;;;;;4999257;28;20065;-80
2021/03/21 04:24:42;;;;;;;6.28;1.67;;;6.70;99.90;;;;;;5006311;28;20046;-80
2021/03/21 04:27:17;;;;;;;14.65;2.33;;;6.70;99.90;;;;;;5008960;28;20120;-80
2021/03/21 04:29:58;;;;;;;17.80;2.38;;;6.70;99.90;;;;;;4989424;28;20466;-79
2021/03/21 04:32:56;;;;;;;8.20;1.58;;;6.70;99.90;;;;;;5007723;28;20196;-80
2021/03/21 04:35:28;;;;;;;6.00;1.67;;;6.70;99.90;;;;;;4980052;28;20505;-80
2021/03/21 04:38:00;;;;;;;15.02;1.52;;;6.70;99.90;;;;;;5006964;28;20049;-80
2021/03/21 04:40:29;;;;;;;11.52;1.58;;;6.70;99.90;;;;;;4997145;28;22293;-80
2021/03/21 04:43:22;;;;;;;12.27;2.10;;;6.70;99.90;;;;;;4991911;28;20050;-80
2021/03/21 04:45:58;;;;;;;10.80;2.05;;;6.70;99.90;;;;;;4997060;28;20556;-80
2021/03/21 04:48:26;;;;;;;10.27;2.03;;;6.60;99.90;;;;;;4994976;28;20123;-80
2021/03/21 04:51:15;;;;;;;4.15;1.40;;;6.70;99.90;;;;;;4985570;28;20117;-80
2021/03/21 04:53:54;;;;;;;14.15;1.85;;;6.70;99.90;;;;;;4988169;28;20065;-80
2021/03/21 04:56:35;;;;;;;6.47;1.08;;;6.70;99.90;;;;;;5004629;28;20050;-80
2021/03/21 04:59:26;;;;;;;7.22;0.80;;;6.70;99.90;;;;;;4991186;28;20048;-80
2021/03/21 05:02:03;;;;;;;7.57;2.28;;;6.70;99.90;;;;;;4983985;28;20583;-80
2021/03/21 05:04:39;;;;;;;9.75;0.88;;;6.70;99.90;;;;;;4993284;28;20045;-81
2021/03/21 05:07:33;;;;;;;4.00;1.40;;;6.60;99.90;;;;;;5009211;28;20105;-80
2021/03/21 05:10:24;;;;;;;5.50;0.68;;;6.60;99.90;;;;;;5006019;28;20046;-80
2021/03/21 05:12:58;;;;;;;11.65;1.55;;;6.60;99.90;;;;;;4995909;28;20054;-79
2021/03/21 05:15:41;;;;;;;5.00;0.90;;;6.60;99.90;;;;;;5006808;28;20053;-80
2021/03/21 05:18:33;;;;;;;10.93;1.47;;;6.60;99.90;;;;;;4995405;28;20503;-80
2021/03/21 05:21:16;;;;;;;14.55;1.88;;;6.60;99.90;;;;;;4993197;28;20132;-80
2021/03/21 05:24:18;;;;;;;17.17;1.73;;;6.60;99.90;;;;;;4990887;28;20061;-80
2021/03/21 05:26:57;;;;;;;6.85;0.75;;;6.60;99.90;;;;;;4995644;28;20109;-80
2021/03/21 05:29:32;;;;;;;9.90;1.00;;;6.50;99.90;;;;;;5006138;28;20141;-80
2021/03/21 05:31:58;;;;;;;16.17;1.70;;;6.50;99.90;;;;;;4998278;28;20500;-80
2021/03/21 05:34:25;;;;;;;18.50;1.80;;;6.50;99.90;;;;;;5005261;28;20060;-80
2021/03/21 05:37:14;;;;;;;9.93;1.50;;;6.50;99.90;;;;;;5009050;28;20080;-80
2021/03/21 05:40:18;;;;;;;6.80;1.15;;;6.40;99.90;;;;;;5007332;28;20053;-80
2021/03/21 05:43:25;;;;;;;7.85;1.25;;;6.40;99.90;;;;;;4992919;28;20073;-81
2021/03/21 05:46:13;;;;;;;4.80;0.60;;;6.40;99.90;;;;;;4987748;28;20094;-80
2021/03/21 05:49:17;;;;;;;9.93;1.10;;;6.40;99.90;;;;;;5007875;28;20049;-80
2021/03/21 05:52:07;;;;;;;5.35;1.17;;;6.40;99.90;;;;;;5001675;28;20050;-82
2021/03/21 05:54:41;;;;;;;7.97;1.08;;;6.40;99.90;;;;;;4990996;28;20144;-82
2021/03/21 05:57:34;;;;;;;5.70;0.93;;;6.40;99.90;;;;;;5004954;28;20069;-81
2021/03/21 06:00:28;;;;;;;7.10;1.42;;;6.40;99.90;;;;;;5003783;28;20050;-81
2021/03/21 06:02:54;;;;;;;16.38;2.22;;;6.40;99.90;;;;;;5008714;28;20076;-82
2021/03/21 06:05:45;;;;;;;10.20;1.30;;;6.40;99.90;;;;;;5006789;28;20045;-82
2021/03/21 06:08:41;;;;;;;16.17;1.20;;;6.30;99.90;;;;;;5005607;28;20065;-81
2021/03/21 06:11:31;;;;;;;7.53;1.33;;;6.30;99.90;;;;;;4988436;28;20034;-81
2021/03/21 06:14:03;;;;;;;6.40;1.00;;;6.30;99.90;;;;;;5006327;28;20064;-82
2021/03/21 06:17:06;;;;;;;11.15;1.58;;;6.30;99.90;;;;;;5006008;28;20653;-82
2021/03/21 06:19:55;;;;;;;5.05;0.68;;;6.40;99.90;;;;;;5002610;28;20060;-81
2021/03/21 06:22:57;;;;;;;7.03;0.90;;;6.50;99.90;;;;;;4984455;28;20053;-81
2021/03/21 06:25:44;;;;;;;6.75;0.98;;;6.50;99.90;;;;;;4952121;28;20487;-82
2021/03/21 06:28:48;;;;;;;11.52;2.00;;;6.50;99.90;;;;;;4983852;28;20041;-82
2021/03/21 06:31:48;;;;;;;7.05;1.58;;;6.60;99.90;;;;;;4988495;28;20046;-81
2021/03/21 06:34:24;;;;;;;14.82;1.63;;;6.60;99.90;;;;;;5005037;28;20046;-81
2021/03/21 06:37:33;;;;;;;18.02;2.58;;;6.60;99.90;;;;;;4997829;28;20084;-81
2021/03/21 06:40:33;;;;;;;12.35;1.77;;;6.60;99.90;;;;;;4993663;28;20432;-80
2021/03/21 06:43:20;;;;;;;7.03;1.20;;;6.70;99.90;;;;;;5006487;28;20042;-80
2021/03/21 06:46:00;;;;;;;13.05;2.28;;;6.70;99.90;;;;;;4990157;28;20046;-81
2021/03/21 06:48:49;;;;;;;7.05;1.52;;;6.70;99.90;;;;;;5006587;28;20149;-80
2021/03/21 06:51:47;;;;;;;16.17;1.83;;;6.70;99.90;;;;;;5008020;28;20511;-81
2021/03/21 06:54:25;;;;;;;19.80;3.08;;;6.80;99.90;;;;;;5005666;28;20052;-80
2021/03/21 06:57:13;;;;;;;13.82;2.03;;;6.80;99.90;;;;;;5007263;28;20446;-83
2021/03/21 07:00:16;;;;;;;22.23;2.45;;;6.90;99.90;;;;;;5007156;28;20057;-81
2021/03/21 07:03:20;;;;;;;13.65;2.75;;;6.90;99.90;;;;;;5002399;28;20076;-81
2021/03/21 07:05:52;;;;;;;19.63;3.13;;;7.00;99.90;;;;;;4995035;28;20050;-82
2021/03/21 07:08:49;;;;;;;14.90;2.30;;;7.00;99.90;;;;;;5011441;28;20481;-82
2021/03/21 07:11:37;;;;;;;18.45;1.98;;;7.10;99.90;;;;;;5012328;28;21553;-82
2021/03/21 07:14:29;;;;;;;23.10;3.67;;;7.10;99.90;;;;;;5011669;28;20161;-82
2021/03/21 07:17:52;;;;;;;18.00;3.00;;;7.10;99.90;;;;;;4992223;28;20057;-81
2021/03/21 07:20:33;;;;;;;22.40;2.90;;;7.20;99.90;;;;;;4987351;28;20790;-82
2021/03/21 07:23:26;;;;;;;20.90;2.88;;;7.20;99.90;;;;;;5003907;28;20081;-82
2021/03/21 07:26:01;;;;;;;16.88;2.40;;;7.20;99.90;;;;;;5001619;28;20050;-82
2021/03/21 07:28:39;;;;;;;24.17;3.95;;;7.20;99.90;;;;;;5008742;28;20089;-82
2021/03/21 07:31:30;;;;;;;13.45;1.83;;;7.20;99.90;;;;;;5005327;28;20045;-81
2021/03/21 07:34:08;;;;;;;19.67;2.20;;;7.20;99.90;;;;;;5002594;28;20065;-81
2021/03/21 07:36:54;;;;;;;27.25;3.00;;;7.20;99.90;;;;;;4988050;28;20117;-81
2021/03/21 07:39:20;;;;;;;24.60;3.83;;;7.30;99.90;;;;;;4991273;28;20068;-79
2021/03/21 07:41:56;;;;;;;18.85;3.15;;;7.30;99.90;;;;;;5010010;28;20486;-80
2021/03/21 07:44:32;;;;;;;16.02;2.83;;;7.40;99.90;;;;;;4991931;28;20053;-80
2021/03/21 07:47:37;;;;;;;24.65;3.67;;;7.40;99.90;;;;;;5008808;28;20396;-81
2021/03/21 07:50:18;;;;;;;;;;;7.40;99.90;;;;;;4927856;28;20048;-79
2021/03/21 07:53:01;;;;;;;6.50;1.50;;;7.40;99.90;;;;;;5006286;28;19925;-80
2021/03/21 07:55:41;;;;;;;26.47;3.73;;;7.40;99.90;;;;;;5009600;28;20112;-80
2021/03/21 07:58:11;;;;;;;41.72;4.13;;;7.40;99.90;;;;;;4990057;28;20293;-80
2021/03/21 08:00:39;;;;;;;26.45;4.63;;;7.40;99.90;;;;;;5005024;28;20081;-81
2021/03/21 08:03:12;;;;;;;24.83;3.45;;;7.40;99.90;;;;;;5005748;28;20519;-79
2021/03/21 08:05:40;;;;;;;32.38;5.75;;;7.50;99.90;;;;;;5008404;28;20054;-81
2021/03/21 08:08:22;;;;;;;23.60;4.00;;;7.50;99.90;;;;;;4999348;28;20049;-81
2021/03/21 08:10:52;;;;;;;26.13;3.83;;;7.60;99.90;;;;;;5010996;28;20085;-80
2021/03/21 08:13:39;;;;;;;29.05;4.18;;;7.60;99.90;;;;;;5006494;28;20053;-80
2021/03/21 08:16:09;;;;;;;25.38;3.55;;;7.60;99.90;;;;;;5006646;28;20132;-80
2021/03/21 08:18:37;;;;;;;36.70;5.70;;;7.70;99.90;;;;;;4985532;28;20054;-79
2021/03/21 08:21:07;;;;;;;24.65;3.60;;;7.70;99.90;;;;;;4979051;28;20593;-80
2021/03/21 08:23:37;;;;;;;18.20;4.18;;;7.80;99.90;;;;;;4990899;28;20075;-80
2021/03/21 08:26:07;;;;;;;26.05;4.57;;;7.90;99.90;;;;;;4997804;28;20065;-80
2021/03/21 08:28:59;;;;;;;22.45;4.15;;;8.00;99.90;;;;;;4975703;28;20078;-80
2021/03/21 08:31:41;;;;;;;31.77;3.72;;;8.10;99.90;;;;;;4990476;28;20501;-80
2021/03/21 08:34:38;;;;;;;31.10;5.70;;;8.20;99.90;;;;;;4959419;28;20053;-81
2021/03/21 08:37:16;;;;;;;27.90;4.50;;;8.10;99.90;;;;;;5008195;28;20114;-80
2021/03/21 08:39:47;;;;;;;18.63;3.25;;;8.10;99.90;;;;;;5006770;28;20060;-80
2021/03/21 08:42:26;;;;;;;29.80;4.43;;;8.10;99.90;;;;;;4991459;28;20049;-78
2021/03/21 08:45:00;;;;;;;27.88;3.60;;;8.10;99.90;;;;;;4992159;28;20408;-78
2021/03/21 08:47:28;;;;;;;25.98;3.45;;;8.20;99.90;;;;;;4988181;28;20061;-80
2021/03/21 08:49:58;;;;;;;21.50;4.25;;;8.20;99.90;;;;;;5007185;28;20493;-81
2021/03/21 08:52:44;;;;;;;22.98;3.80;;;8.20;99.90;;;;;;4991005;28;20157;-80
2021/03/21 08:55:41;;;;;;;24.88;4.75;;;8.20;99.90;;;;;;4997557;28;20050;-81
2021/03/21 08:58:26;;;;;;;19.58;3.30;;;8.20;99.90;;;;;;4988116;28;20137;-82
2021/03/21 09:00:58;;;;;;;23.35;3.67;;;8.20;99.90;;;;;;5001282;28;20085;-81
2021/03/21 09:03:40;;;;;;;24.55;3.75;;;8.20;99.90;;;;;;5004079;28;20124;-79
2021/03/21 09:06:11;;;;;;;27.20;4.40;;;8.30;99.90;;;;;;4987711;28;20081;-80
2021/03/21 09:08:37;;;;;;;27.73;3.65;;;8.30;99.90;;;;;;5002276;28;20061;-81
2021/03/21 09:11:06;;;;;;;21.25;4.45;;;8.40;99.90;;;;;;4990555;28;20141;-80
2021/03/21 09:13:35;;;;;;;31.48;5.00;;;8.50;99.90;;;;;;4987911;28;20156;-85
2021/03/21 09:16:08;;;;;;;23.10;3.45;;;8.50;99.90;;;;;;5007187;28;20049;-82
2021/03/21 09:18:41;;;;;;;24.40;3.67;;;8.50;99.90;;;;;;4985233;28;20050;-82
2021/03/21 09:21:25;;;;;;;38.47;4.50;;;8.60;99.90;;;;;;5005177;28;20088;-81
2021/03/21 09:24:09;;;;;;;22.67;3.60;;;8.50;99.90;;;;;;4993568;28;20113;-83
2021/03/21 09:26:44;;;;;;;27.13;4.80;;;8.60;99.90;;;;;;5007463;28;20469;-81
2021/03/21 09:29:24;;;;;;;23.40;3.97;;;8.60;99.90;;;;;;4997707;28;20777;-82
2021/03/21 09:31:54;;;;;;;30.85;4.20;;;8.70;99.90;;;;;;4997523;28;20504;-82
2021/03/21 09:34:30;;;;;;;24.92;4.47;;;8.90;99.90;;;;;;4996927;28;20045;-81
2021/03/21 09:37:07;;;;;;;24.13;4.40;;;9.10;99.90;;;;;;5010309;28;20121;-82
2021/03/21 09:39:35;;;;;;;23.98;3.25;;;9.20;99.90;;;;;;5007240;28;20057;-81
2021/03/21 09:42:09;;;;;;;21.85;3.65;;;9.20;99.90;;;;;;4999713;28;20041;-83
2021/03/21 09:44:46;;;;;;;23.80;3.50;;;9.10;99.90;;;;;;4990483;28;20219;-83
2021/03/21 09:47:21;;;;;;;26.23;3.63;;;9.00;99.90;;;;;;5006040;28;20050;-81
2021/03/21 09:50:29;;;;;;;28.77;4.25;;;8.90;99.90;;;;;;4994828;28;20046;-82
2021/03/21 09:53:11;;;;;;;24.65;3.65;;;9.00;99.90;;;;;;4998070;28;20553;-81
2021/03/21 09:55:47;;;;;;;28.70;3.70;;;9.10;99.90;;;;;;4996297;28;20053;-83
2021/03/21 09:58:26;;;;;;;27.40;4.00;;;9.20;99.90;;;;;;5008138;28;20145;-83
2021/03/21 10:01:28;;;;;;;14.27;3.08;;;9.30;99.90;;;;;;4987931;28;20046;-82
2021/03/21 10:04:33;;;;;;;25.70;4.40;;;9.30;99.90;;;;;;4958303;28;20057;-83
2021/03/21 10:07:07;;;;;;;21.25;3.28;;;9.50;99.90;;;;;;4979634;28;20556;-82
2021/03/21 10:09:34;;;;;;;;;;;9.60;99.90;;;;;;5000301;28;20120;-82
2021/03/21 10:12:09;;;;;;;26.13;3.58;;;9.70;99.90;;;;;;5000954;28;20045;-80
2021/03/21 10:14:35;;;;;;;29.35;3.03;;;9.70;99.90;;;;;;5007698;28;20050;-81
2021/03/21 10:17:20;;;;;;;22.48;3.47;;;9.70;99.90;;;;;;5008845;28;20101;-81
2021/03/21 10:19:51;;;;;;;32.95;6.03;;;9.70;99.90;;;;;;5008289;28;20038;-82
2021/03/21 10:22:20;;;;;;;35.58;4.57;;;9.60;99.90;;;;;;4997050;28;20070;-83
2021/03/21 10:24:52;;;;;;;34.72;4.93;;;9.60;99.90;;;;;;5008019;28;20050;-83
2021/03/21 10:27:23;;;;;;;24.02;4.07;;;9.60;99.90;;;;;;5007792;28;20105;-81
2021/03/21 10:30:21;;;;;;;26.67;3.22;;;9.70;99.90;;;;;;5005095;28;20049;-81
2021/03/21 10:33:00;;;;;;;16.50;2.42;;;9.70;99.90;;;;;;4977112;28;20092;-81
2021/03/21 10:35:30;;;;;;;21.58;3.83;;;9.70;99.90;;;;;;4999525;28;20069;-81
2021/03/21 10:38:03;;;;;;;21.33;4.43;;;9.80;99.90;;;;;;5005549;28;20710;-82
2021/03/21 10:40:29;;;;;;;24.92;3.25;;;9.80;99.90;;;;;;4987385;28;20049;-81
2021/03/21 10:43:18;;;;;;;36.30;5.43;;;9.90;99.90;;;;;;5010405;28;20050;-82
2021/03/21 10:45:48;;;;;;;23.63;4.30;;;9.80;99.90;;;;;;4967852;28;20046;-81
2021/03/21 10:48:35;;;;;;;23.58;3.92;;;9.70;99.90;;;;;;4994219;28;20042;-81
2021/03/21 10:51:08;;;;;;;23.10;3.92;;;9.60;99.90;;;;;;4984199;28;20050;-80
2021/03/21 10:53:47;;;;;;;18.45;3.65;;;9.60;99.90;;;;;;4986614;28;20073;-81
2021/03/21 10:56:26;;;;;;;17.02;2.90;;;9.50;99.90;;;;;;5006554;28;20061;-80
2021/03/21 10:59:12;;;;;;;30.42;5.07;;;9.60;99.90;;;;;;4990242;28;20100;-81
2021/03/21 11:01:45;;;;;;;33.75;5.82;;;9.50;99.90;;;;;;4999206;28;20099;-80
2021/03/21 11:04:21;;;;;;;;;;;9.40;99.90;;;;;;5008378;28;20133;-81
2021/03/21 11:06:53;;;;;;;19.17;2.97;;;9.50;99.90;;;;;;5007281;28;19988;-81
2021/03/21 11:09:24;;;;;;;25.55;3.67;;;9.50;99.90;;;;;;4990226;28;20053;-81
2021/03/21 11:11:51;;;;;;;18.90;3.80;;;9.60;99.90;;;;;;4998564;28;20618;-82
2021/03/21 11:14:24;;;;;;;29.08;3.50;;;9.60;99.90;;;;;;4993204;28;20440;-81
2021/03/21 11:17:00;;;;;;;22.60;3.28;;;9.60;99.90;;;;;;5003466;28;20042;-81
2021/03/21 11:19:51;;;;;;;37.75;5.38;;;9.60;99.90;;;;;;5012679;28;20077;-82
2021/03/21 11:22:37;;;;;;;23.38;3.10;;;9.60;99.90;;;;;;5003169;28;20076;-82
2021/03/21 11:25:14;;;;;;;31.50;4.93;;;9.50;99.90;;;;;;4993325;28;20143;-82
2021/03/21 11:27:48;;;;;;;21.42;3.67;;;9.60;99.90;;;;;;5009333;28;20049;-83
2021/03/21 11:30:26;;;;;;;28.02;4.05;;;9.60;99.90;;;;;;4997372;28;20046;-81
2021/03/21 11:32:57;;;;;;;21.35;3.42;;;9.50;99.90;;;;;;5002300;28;20060;-81
2021/03/21 11:35:42;;;;;;;18.17;3.15;;;9.60;99.90;;;;;;5011219;28;20133;-81
2021/03/21 11:38:30;;;;;;;30.90;4.85;;;9.70;99.90;;;;;;5010844;28;25016;-82
2021/03/21 11:41:00;;;;;;;23.45;4.45;;;9.60;99.90;;;;;;4993225;28;20073;-82
2021/03/21 11:43:30;;;;;;;22.70;3.38;;;9.40;99.90;;;;;;5003250;28;20073;-81
2021/03/21 11:46:30;;;;;;;27.17;4.70;;;9.30;99.90;;;;;;4997964;28;20050;-81
2021/03/21 11:48:58;;;;;;;26.35;3.83;;;9.30;99.90;;;;;;4988640;28;20069;-81
2021/03/21 11:51:28;;;;;;;26.75;3.85;;;9.20;99.90;;;;;;5011822;28;20088;-81
2021/03/21 11:53:55;;;;;;;17.40;3.75;;;9.20;99.90;;;;;;5000273;28;20096;-79
2021/03/21 11:56:32;;;;;;;23.90;3.75;;;9.20;99.90;;;;;;4992089;28;20129;-81
2021/03/21 11:59:15;;;;;;;34.58;4.97;;;9.20;99.90;;;;;;4993138;28;20129;-84
2021/03/21 12:01:44;;;;;;;40.22;6.57;;;9.20;99.90;;;;;;5011694;28;20057;-85
2021/03/21 12:04:38;;;;;;;25.40;5.20;;;9.20;99.90;;;;;;5001790;28;20046;-82
2021/03/21 12:07:12;;;;;;;24.38;4.25;;;9.20;99.90;;;;;;4991761;28;20405;-82
2021/03/21 12:09:48;;;;;;;22.60;4.63;;;9.20;99.90;;;;;;4987045;28;20041;-83
2021/03/21 12:12:35;;;;;;;26.10;5.38;;;9.10;99.90;;;;;;4985754;28;20169;-82
2021/03/21 12:15:23;;;;;;;31.10;4.35;;;9.20;99.90;;;;;;4990611;28;20176;-82
2021/03/21 12:18:07;;;;;;;30.75;4.90;;;9.10;99.90;;;;;;5005371;28;20046;-82
2021/03/21 12:20:42;;;;;;;25.75;4.05;;;9.10;99.90;;;;;;4997539;28;20050;-82
2021/03/21 12:23:29;;;;;;;28.98;3.72;;;9.20;99.90;;;;;;4991491;28;20041;-82
2021/03/21 12:26:06;;;;;;;27.08;4.40;;;9.10;99.90;;;;;;4992750;28;20065;-81
2021/03/21 12:28:34;;;;;;;20.23;3.88;;;9.10;99.90;;;;;;5006813;28;20137;-80
2021/03/21 12:31:08;;;;;;;30.35;3.97;;;9.10;99.90;;;;;;4987318;28;20053;-82
2021/03/21 12:33:36;;;;;;;26.55;4.68;;;9.20;99.90;;;;;;5007913;28;20054;-81
2021/03/21 12:36:03;;;;;;;27.35;4.15;;;9.20;99.90;;;;;;4992973;28;20150;-80
2021/03/21 12:38:44;;;;;;;22.45;4.15;;;9.30;99.90;;;;;;5000395;28;20049;-81
2021/03/21 12:41:29;;;;;;;18.42;3.35;;;9.30;99.90;;;;;;5003577;28;20042;-81
2021/03/21 12:44:16;;;;;;;26.45;3.85;;;9.30;99.90;;;;;;5010696;28;20492;-81
2021/03/21 12:46:55;;;;;;;27.25;4.40;;;9.20;99.90;;;;;;5008667;28;20656;-81
2021/03/21 12:49:42;;;;;;;21.80;4.28;;;9.20;99.90;;;;;;5010911;28;20478;-80
2021/03/21 12:52:22;;;;;;;14.65;3.25;;;9.30;99.90;;;;;;4999893;28;20041;-81
2021/03/21 12:54:50;;;;;;;23.92;3.20;;;9.50;99.90;;;;;;5001133;28;20038;-81
2021/03/21 12:57:16;;;;;;;19.02;3.50;;;9.60;99.90;;;;;;4987603;28;20065;-81
2021/03/21 12:59:52;;;;;;;15.82;3.63;;;9.80;99.90;;;;;;4980833;28;20049;-82
2021/03/21 13:02:30;;;;;;;21.88;2.92;;;10.00;99.90;;;;;;5006565;28;20482;-80
2021/03/21 13:04:59;;;;;;;21.40;3.45;;;10.10;99.90;;;;;;4993882;28;20050;-79
2021/03/21 13:07:27;;;;;;;31.35;3.42;;;10.40;99.90;;;;;;4999195;28;20077;-80
2021/03/21 13:09:54;;;;;;;26.20;3.97;;;10.80;99.90;;;;;;5008330;28;20100;-80
2021/03/21 13:12:21;;;;;;;21.17;3.83;;;11.10;99.10;;;;;;4989421;28;20984;-80
2021/03/21 13:14:49;;;;;;;18.83;2.95;;;11.30;97.90;;;;;;4990294;28;20050;-80
2021/03/21 13:17:16;;;;;;;26.08;3.72;;;11.50;94.10;;;;;;4987872;28;20054;-80
2021/03/21 13:19:43;;;;;;;21.33;3.13;;;11.40;97.40;;;;;;4994741;28;20050;-79
2021/03/21 13:22:10;;;;;;;21.15;3.00;;;11.50;94.90;;;;;;4990647;28;20144;-80
2021/03/21 13:24:36;;;;;;;21.52;3.95;;;11.50;93.70;;;;;;4999015;28;20153;-80
2021/03/21 13:27:05;;;;;;;19.73;3.25;;;11.60;94.00;;;;;;4987500;28;20524;-80
2021/03/21 13:29:31;;;;;;;20.15;3.00;;;11.60;94.30;;;;;;5012485;28;20110;-80
2021/03/21 13:31:58;;;;;;;19.75;2.80;;;11.60;93.90;;;;;;4996200;28;20037;-81
2021/03/21 13:34:31;;;;;;;25.25;4.90;;;11.70;93.60;;;;;;4988925;28;20073;-80
2021/03/21 13:37:17;;;;;;;28.23;3.60;;;11.80;94.70;;;;;;4993643;28;20046;-79
2021/03/21 13:39:44;;;;;;;21.67;3.40;;;12.00;94.40;;;;;;4992582;28;20120;-82
2021/03/21 13:42:10;;;;;;;30.27;4.20;;;12.20;93.40;;;;;;4994859;28;20047;-82
2021/03/21 13:44:36;;;;;;;23.25;3.55;;;12.30;91.10;;;;;;4982366;28;20100;-81
2021/03/21 13:47:05;;;;;;;20.38;3.10;;;12.10;89.20;;;;;;4997108;28;20111;-81
2021/03/21 13:49:31;;;;;;;18.55;3.05;;;11.80;90.20;;;;;;4991759;28;20042;-81